WetterOnline ( https://www.wetteronline.de )

Wetter aktuell Ziesar

Aktuelles Wetter: Wiesenburg (188m)

6-stündlich | Neueste Meldungen
Ortszeit Temperatur Wetter
Mo, 19.10. 20:00 7.2° C bewölkt
Mo, 19.10. 14:00 10.9° C bewölkt
Mo, 19.10. 8:00 6.4° C bedeckt
Mo, 19.10. 2:00 6.8° C wolkig
So, 18.10. 20:00 7.7° C Regen
So, 18.10. 14:00 9.1° C Sprühregen
So, 18.10. 8:00 5.7° C wolkig
So, 18.10. 2:00 6.5° C bewölkt
Ortszeit Temperatur Wetter
Mo, 19.10. 23:30 5.1° C leicht bewölkt
Mo, 19.10. 23:20 5.1° C leicht bewölkt
Mo, 19.10. 23:10 5.0° C leicht bewölkt
Mo, 19.10. 23:00 5.3° C wolkig
Mo, 19.10. 22:50 5.3° C wolkig
Mo, 19.10. 22:40 5.3° C wolkig
Mo, 19.10. 22:30 5.7° C wolkig
Mo, 19.10. 22:00 5.6° C wolkig
Ortszeit Relative Feuchte Sichtweite
Mo, 19.10. 20:00 95% 16 km
Mo, 19.10. 14:00 73% 30 km
Mo, 19.10. 8:00 98% 3.5 km
Mo, 19.10. 2:00 97% 4.4 km
So, 18.10. 20:00 93% 22 km
So, 18.10. 14:00 83% 20 km
So, 18.10. 8:00 96% 3.6 km
So, 18.10. 2:00 97% 11 km
Ortszeit Relative Feuchte Sichtweite
Mo, 19.10. 23:30 98% 7 km
Mo, 19.10. 23:20 98% -
Mo, 19.10. 23:10 97% -
Mo, 19.10. 23:00 98% 5.0 km
Mo, 19.10. 22:50 98% -
Mo, 19.10. 22:40 98% -
Mo, 19.10. 22:30 98% 6 km
Mo, 19.10. 22:00 99% 5.0 km
Ortszeit Niederschlagsmenge Niederschlagsart
Mo, 19.10. 20:00 0.0 l/m2 in 12 Std. -
Mo, 19.10. 14:00 0.0 l/m2 in 6 Std. -
Mo, 19.10. 8:00 0.1 l/m2 in 12 Std. Regen
Mo, 19.10. 2:00 0.1 l/m2 in 6 Std. Regen
So, 18.10. 20:00 5 l/m2 in 12 Std. Regen
So, 18.10. 14:00 0.1 l/m2 in 6 Std. Regen
So, 18.10. 8:00 0.0 l/m2 in 12 Std. -
So, 18.10. 2:00 0.0 l/m2 in 6 Std. -
Ortszeit Niederschlagsmenge Niederschlagsart
Mo, 19.10. 23:30 0.0 l/m2 in 1 Std. -
Mo, 19.10. 23:20 keine Meldung -
Mo, 19.10. 23:10 keine Meldung -
Mo, 19.10. 23:00 0.0 l/m2 in 1 Std. -
Mo, 19.10. 22:50 keine Meldung -
Mo, 19.10. 22:40 keine Meldung -
Mo, 19.10. 22:30 0.0 l/m2 in 1 Std. -
Mo, 19.10. 22:00 0.0 l/m2 in 1 Std. -
Ortszeit Stärke Spitze Richtung
km/h Bft. km/h Grad Sektor
Mo, 19.10. 20:00 6 1 20 170° S
Mo, 19.10. 14:00 7 2 18 230° SW
Mo, 19.10. 8:00 11 2 22 240° SW
Mo, 19.10. 2:00 13 3 28 250° W
So, 18.10. 20:00 13 3 39 270° W
So, 18.10. 14:00 25 4 43 260° W
So, 18.10. 8:00 22 4 41 250° W
So, 18.10. 2:00 13 3 22 280° W
Ortszeit Stärke Spitze Richtung
km/h Bft. km/h Grad Sektor
Mo, 19.10. 23:30 6 1 11 180° S
Mo, 19.10. 23:20 6 1 - 180° S
Mo, 19.10. 23:10 7 2 - 180° S
Mo, 19.10. 23:00 7 2 11 190° S
Mo, 19.10. 22:50 7 2 - 190° S
Mo, 19.10. 22:40 6 1 - 180° S
Mo, 19.10. 22:30 7 2 11 180° S
Mo, 19.10. 22:00 6 1 11 170° S
Ortszeit Untergrenze Bedeckung Gattung
total tief tief mittel hoch
Mo, 19.10. 20:00 1800 m 7/8 7/8 - - -
Mo, 19.10. 14:00 810 m 7/8 7/8 - - -
Mo, 19.10. 8:00 60 m 8/8 8/8 - - -
Mo, 19.10. 2:00 900 m 8/8 1/8 - - -
So, 18.10. 20:00 900 m 7/8 7/8 - - -
So, 18.10. 14:00 480 m 8/8 8/8 - - -
So, 18.10. 8:00 120 m 5/8 5/8 - - -
So, 18.10. 2:00 90 m 7/8 7/8 - - -
Ortszeit Bedeckungsgrad in Achtel und Wolkenuntergrenze
Mo, 19.10. 23:30 4(9000m) 6(10500m)
Mo, 19.10. 23:20 4(9000m) 6(10500m)
Mo, 19.10. 23:10 4(9000m) 5(10500m)
Mo, 19.10. 23:00 8(9000m) 7(10500m)
Mo, 19.10. 22:50 8(9000m)
Mo, 19.10. 22:40 8(9000m)
Mo, 19.10. 22:30 7(9000m) 8(10500m)
Mo, 19.10. 22:00 8(10500m)
Ortszeit Luftdruck NN (hPa) Tendenz (hPa in 3 Std.)
Mo, 19.10. 20:00 1022 0,0
Mo, 19.10. 14:00 1023 - 0,3
Mo, 19.10. 8:00 1022 + 0,6
Mo, 19.10. 2:00 1021 + 0,8
So, 18.10. 20:00 1020 + 1,3
So, 18.10. 14:00 1018 - 0,1
So, 18.10. 8:00 1018 - 0,4
So, 18.10. 2:00 1019 - 0,3
Ortszeit Luftdruck NN (hPa) Tendenz (hPa in 3 Std.)
Mo, 19.10. 23:30 1022 - 0,2
Mo, 19.10. 23:20 1022 keine Meldung
Mo, 19.10. 23:10 1022 keine Meldung
Mo, 19.10. 23:00 1023 0,0
Mo, 19.10. 22:50 1023 keine Meldung
Mo, 19.10. 22:40 1022 keine Meldung
Mo, 19.10. 22:30 1022 - 0,4
Mo, 19.10. 22:00 1023 - 0,2
Ortszeit Schneehöhe (cm)
Mo, 19.10. 20:00 0
Mo, 19.10. 14:00 0
Mo, 19.10. 8:00 0
Mo, 19.10. 2:00 0
So, 18.10. 20:00 0
So, 18.10. 14:00 0
So, 18.10. 8:00 0
So, 18.10. 2:00 0
Ortszeit Schneehöhe (cm)
Mo, 19.10. 23:30 0
Mo, 19.10. 23:20 0
Mo, 19.10. 23:10 0
Mo, 19.10. 23:00 0
Mo, 19.10. 22:50 0
Mo, 19.10. 22:40 0
Mo, 19.10. 22:30 0
Mo, 19.10. 22:00 0
Link zu dieser Seite / Seite empfehlen

Das Wetter in ...